createdAt,value
2018-12-21T00:02:07.252Z,11.90
2018-12-21T00:04:35.552Z,11.78
2018-12-21T00:07:03.899Z,11.60
2018-12-21T00:09:32.208Z,11.20
2018-12-21T00:12:00.510Z,11.03
2018-12-21T00:14:28.901Z,12.35
2018-12-21T00:16:57.205Z,12.68
2018-12-21T00:19:25.593Z,12.60
2018-12-21T00:21:53.780Z,11.93
2018-12-21T00:24:22.171Z,11.78
2018-12-21T00:26:50.385Z,11.50
2018-12-21T00:29:18.686Z,11.78
2018-12-21T00:31:52.564Z,10.82
2018-12-21T00:34:26.302Z,11.88
2018-12-21T00:36:59.982Z,12.05
2018-12-21T00:42:22.611Z,10.75
2018-12-21T00:44:57.260Z,11.45
2018-12-21T00:47:25.810Z,11.43
2018-12-21T00:49:54.102Z,10.45
2018-12-21T00:52:22.443Z,10.90
2018-12-21T00:54:50.826Z,11.38
2018-12-21T00:57:19.099Z,10.60
2018-12-21T00:59:49.336Z,11.43
2018-12-21T01:02:17.555Z,11.00
2018-12-21T01:04:46.020Z,12.35
2018-12-21T01:07:14.407Z,12.00
2018-12-21T01:09:42.802Z,12.70
2018-12-21T01:12:11.320Z,11.35
2018-12-21T01:14:40.129Z,11.97
2018-12-21T01:17:08.499Z,12.03
2018-12-21T01:19:36.796Z,11.30
2018-12-21T01:22:05.471Z,11.20
2018-12-21T01:24:33.718Z,9.90
2018-12-21T01:27:02.039Z,10.40
2018-12-21T01:29:30.274Z,10.45
2018-12-21T01:31:58.596Z,10.10
2018-12-21T01:34:26.944Z,10.25
2018-12-21T01:36:55.224Z,9.68
2018-12-21T01:39:23.629Z,9.23
2018-12-21T01:41:51.868Z,10.00
2018-12-21T01:44:20.188Z,10.30
2018-12-21T01:46:48.586Z,9.80
2018-12-21T01:49:17.030Z,9.78
2018-12-21T01:51:47.183Z,10.40
2018-12-21T01:54:15.756Z,10.53
2018-12-21T01:56:44.014Z,10.70
2018-12-21T01:59:12.346Z,9.63
2018-12-21T02:01:40.606Z,10.95
2018-12-21T02:04:08.860Z,8.93
2018-12-21T02:06:37.162Z,9.80
2018-12-21T02:09:07.003Z,9.90
2018-12-21T02:11:35.202Z,8.70
2018-12-21T02:14:03.513Z,9.83
2018-12-21T02:16:31.684Z,8.40
2018-12-21T02:18:59.986Z,7.70
2018-12-21T02:21:28.200Z,9.15
2018-12-21T02:23:56.366Z,9.40
2018-12-21T02:26:24.765Z,8.38
2018-12-21T02:28:53.059Z,8.13
2018-12-21T02:31:21.330Z,12.18
2018-12-21T02:33:49.514Z,12.93
2018-12-21T02:36:17.794Z,11.38
2018-12-21T02:38:46.103Z,11.53
2018-12-21T02:41:14.445Z,11.80
2018-12-21T02:43:42.882Z,11.18
2018-12-21T02:46:11.176Z,11.88
2018-12-21T02:48:39.582Z,12.00
2018-12-21T02:51:07.766Z,12.20
2018-12-21T02:53:35.995Z,12.95
2018-12-21T02:56:04.297Z,13.10
2018-12-21T02:58:32.538Z,12.68
2018-12-21T03:01:00.776Z,11.75
2018-12-21T03:03:29.064Z,11.30
2018-12-21T03:05:57.369Z,11.85
2018-12-21T03:08:25.743Z,10.20
2018-12-21T03:10:53.957Z,9.38
2018-12-21T03:13:22.383Z,8.43
2018-12-21T03:15:50.647Z,7.00
2018-12-21T03:18:18.927Z,6.70
2018-12-21T03:20:47.209Z,7.03
2018-12-21T03:23:15.670Z,6.80
2018-12-21T03:25:43.925Z,7.60
2018-12-21T03:28:12.135Z,6.80
2018-12-21T03:30:40.484Z,6.80
2018-12-21T03:33:08.798Z,6.75
2018-12-21T03:35:37.071Z,6.50
2018-12-21T03:38:05.325Z,7.60
2018-12-21T03:40:33.965Z,7.20
2018-12-21T03:43:02.715Z,6.60
2018-12-21T03:45:31.077Z,6.90
2018-12-21T03:47:59.276Z,7.40
2018-12-21T03:50:27.578Z,7.40
2018-12-21T03:52:55.828Z,6.53
2018-12-21T03:55:24.371Z,6.90
2018-12-21T03:57:52.722Z,7.53
2018-12-21T04:00:20.953Z,7.10
2018-12-21T04:02:49.224Z,7.35
2018-12-21T04:05:17.427Z,7.12
2018-12-21T04:07:45.732Z,8.38
2018-12-21T04:10:14.082Z,8.40
2018-12-21T04:12:42.346Z,7.10
2018-12-21T04:15:10.596Z,7.33
2018-12-21T04:17:38.876Z,9.75
2018-12-21T04:20:07.122Z,7.28
2018-12-21T04:22:35.540Z,7.47
2018-12-21T04:25:04.175Z,7.28
2018-12-21T04:27:32.432Z,8.08
2018-12-21T04:30:00.716Z,8.85
2018-12-21T04:32:29.156Z,7.43
2018-12-21T04:34:57.386Z,9.40
2018-12-21T04:37:25.695Z,8.45
2018-12-21T04:39:53.932Z,8.80
2018-12-21T04:42:22.361Z,9.30
2018-12-21T04:44:50.539Z,9.38
2018-12-21T04:47:18.733Z,8.77
2018-12-21T04:49:46.951Z,10.00
2018-12-21T04:52:15.265Z,10.23
2018-12-21T04:54:43.565Z,10.32
2018-12-21T04:57:11.816Z,9.55
2018-12-21T04:59:40.129Z,11.15
2018-12-21T05:02:08.470Z,10.20
2018-12-21T05:04:36.703Z,9.15
2018-12-21T05:07:12.214Z,9.98
2018-12-21T05:09:35.313Z,9.45
2018-12-21T05:12:03.645Z,10.55
2018-12-21T05:14:31.967Z,10.72
2018-12-21T05:17:00.492Z,10.80
2018-12-21T05:19:28.847Z,10.80
2018-12-21T05:21:57.072Z,11.20
2018-12-21T05:24:25.349Z,11.20
2018-12-21T05:26:53.601Z,10.70
2018-12-21T05:29:21.918Z,11.30
2018-12-21T05:31:50.226Z,10.28
2018-12-21T05:34:18.477Z,10.32
2018-12-21T05:36:46.752Z,9.85
2018-12-21T05:39:15.262Z,11.05
2018-12-21T05:41:43.665Z,11.55
2018-12-21T05:44:11.947Z,10.70
2018-12-21T05:46:40.250Z,10.25
2018-12-21T05:49:08.598Z,11.08
2018-12-21T05:51:36.990Z,9.58
2018-12-21T05:54:05.341Z,9.60
2018-12-21T05:56:33.811Z,10.55
2018-12-21T05:59:02.081Z,10.35
2018-12-21T06:01:30.293Z,9.70
2018-12-21T06:03:58.513Z,9.78
2018-12-21T06:06:26.740Z,10.72
2018-12-21T06:08:55.044Z,10.30
2018-12-21T06:11:23.397Z,9.50
2018-12-21T06:13:51.813Z,10.18
2018-12-21T06:16:20.084Z,12.00
2018-12-21T06:18:48.272Z,9.88
2018-12-21T06:21:16.634Z,15.10
2018-12-21T06:23:44.894Z,11.40
2018-12-21T06:26:13.247Z,10.78
2018-12-21T06:28:41.514Z,9.55
2018-12-21T06:31:09.894Z,10.13
2018-12-21T06:33:38.216Z,10.13
2018-12-21T06:36:06.575Z,10.53
2018-12-21T06:38:35.330Z,12.80
2018-12-21T06:41:04.197Z,15.73
2018-12-21T06:43:32.815Z,13.07
2018-12-21T06:46:01.337Z,11.60
2018-12-21T06:48:29.997Z,13.38
2018-12-21T06:50:58.709Z,11.22
2018-12-21T06:53:27.223Z,10.40
2018-12-21T06:55:55.465Z,9.58
2018-12-21T06:58:24.497Z,10.72
2018-12-21T07:00:52.971Z,12.60
2018-12-21T07:03:22.420Z,11.22
2018-12-21T07:05:50.751Z,10.30
2018-12-21T07:08:19.408Z,10.72
2018-12-21T07:10:47.761Z,9.63
2018-12-21T07:13:16.193Z,9.85
2018-12-21T07:15:44.550Z,9.45
2018-12-21T07:18:12.951Z,10.20
2018-12-21T07:20:41.267Z,10.98
2018-12-21T07:23:09.623Z,11.63
2018-12-21T07:25:37.990Z,10.78
2018-12-21T07:28:06.336Z,12.63
2018-12-21T07:30:34.656Z,10.70
2018-12-21T07:33:03.058Z,10.70
2018-12-21T07:35:31.271Z,12.40
2018-12-21T07:37:59.507Z,11.80
2018-12-21T07:40:28.368Z,12.75
2018-12-21T07:42:56.642Z,21.73
2018-12-21T07:45:25.020Z,10.68
2018-12-21T07:47:55.481Z,10.73
2018-12-21T07:50:23.738Z,14.58
2018-12-21T07:52:53.299Z,12.15
2018-12-21T07:55:24.028Z,11.38
2018-12-21T07:57:52.533Z,11.90
2018-12-21T08:00:20.858Z,12.10
2018-12-21T08:02:49.355Z,11.57
2018-12-21T08:05:17.661Z,13.28
2018-12-21T08:07:45.967Z,12.07
2018-12-21T08:10:17.281Z,10.18
2018-12-21T08:12:45.610Z,9.93
2018-12-21T08:15:13.814Z,9.05
2018-12-21T08:17:42.229Z,9.10
2018-12-21T08:20:10.584Z,9.70
2018-12-21T08:22:38.824Z,11.55
2018-12-21T08:25:07.522Z,8.70
2018-12-21T08:27:35.923Z,9.00
2018-12-21T08:30:04.646Z,9.75
2018-12-21T08:32:32.924Z,8.95
2018-12-21T08:35:01.204Z,8.28
2018-12-21T08:37:29.553Z,9.80
2018-12-21T08:39:57.896Z,15.25
2018-12-21T08:42:26.135Z,14.28
2018-12-21T08:44:54.407Z,18.57
2018-12-21T08:47:22.820Z,14.93
2018-12-21T08:49:51.057Z,16.85
2018-12-21T08:52:19.439Z,21.45
2018-12-21T08:54:47.751Z,15.23
2018-12-21T08:57:16.157Z,19.20
2018-12-21T08:59:44.486Z,13.93
2018-12-21T09:02:12.828Z,13.20
2018-12-21T09:04:41.356Z,13.80
2018-12-21T09:07:09.844Z,20.37
2018-12-21T09:09:38.209Z,11.70
2018-12-21T09:12:06.589Z,13.30
2018-12-21T09:14:35.018Z,12.80
2018-12-21T09:17:03.349Z,14.03
2018-12-21T09:19:31.650Z,12.25
2018-12-21T09:21:59.939Z,8.68
2018-12-21T09:24:28.483Z,10.98
2018-12-21T09:26:56.730Z,7.92
2018-12-21T09:29:25.086Z,6.67
2018-12-21T09:31:53.499Z,7.50
2018-12-21T09:34:21.744Z,5.50
2018-12-21T09:36:50.041Z,10.38
2018-12-21T09:39:18.451Z,5.85
2018-12-21T09:41:46.788Z,7.20
2018-12-21T09:44:15.111Z,10.78
2018-12-21T09:46:43.578Z,6.10
2018-12-21T09:51:54.227Z,6.50
2018-12-21T09:54:22.503Z,7.80
2018-12-21T09:56:50.865Z,7.42
2018-12-21T09:59:19.343Z,6.70
2018-12-21T10:01:47.793Z,10.23
2018-12-21T10:04:16.108Z,13.30
2018-12-21T10:06:44.359Z,11.83
2018-12-21T10:09:12.672Z,10.28
2018-12-21T10:11:40.988Z,11.95
2018-12-21T10:14:09.230Z,9.60
2018-12-21T10:16:37.897Z,8.75
2018-12-21T10:19:06.342Z,8.73
2018-12-21T10:21:34.775Z,5.90
2018-12-21T10:24:03.107Z,6.08
2018-12-21T10:26:31.366Z,8.80
2018-12-21T10:28:59.839Z,6.20
2018-12-21T10:31:28.274Z,5.20
2018-12-21T10:33:56.841Z,7.03
2018-12-21T10:36:25.191Z,6.15
2018-12-21T10:38:53.565Z,5.80
2018-12-21T10:41:21.882Z,7.33
2018-12-21T10:43:50.341Z,8.10
2018-12-21T10:46:18.740Z,9.60
2018-12-21T10:48:49.263Z,9.75
2018-12-21T10:51:17.724Z,9.90
2018-12-21T10:53:46.832Z,10.15
2018-12-21T10:56:15.373Z,10.90
2018-12-21T10:58:43.722Z,13.03
2018-12-21T11:01:12.124Z,7.83
2018-12-21T11:03:40.617Z,8.93
2018-12-21T11:06:09.850Z,7.42
2018-12-21T11:08:38.248Z,7.90
2018-12-21T11:11:07.134Z,9.73
2018-12-21T11:13:36.039Z,8.03
2018-12-21T11:16:04.714Z,9.20
2018-12-21T11:18:33.027Z,10.45
2018-12-21T11:21:02.265Z,6.50
2018-12-21T11:23:32.515Z,5.95
2018-12-21T11:26:03.893Z,7.00
2018-12-21T11:28:33.081Z,7.80
2018-12-21T11:31:01.429Z,5.42
2018-12-21T11:33:29.812Z,6.92
2018-12-21T11:35:58.183Z,6.08
2018-12-21T11:38:26.617Z,8.13
2018-12-21T11:40:56.154Z,5.00
2018-12-21T11:43:25.350Z,5.22
2018-12-21T11:45:53.815Z,5.00
2018-12-21T11:48:22.242Z,6.37
2018-12-21T11:50:50.626Z,4.70
2018-12-21T11:53:19.671Z,4.90
2018-12-21T11:55:49.127Z,6.07
2018-12-21T11:58:17.987Z,4.10
2018-12-21T12:00:46.370Z,4.10
2018-12-21T12:03:14.685Z,5.40
2018-12-21T12:05:42.894Z,7.00
2018-12-21T12:08:11.227Z,6.03
2018-12-21T12:10:39.565Z,5.20
2018-12-21T12:13:07.793Z,4.05
2018-12-21T12:15:36.191Z,7.00
2018-12-21T12:18:04.654Z,4.30
2018-12-21T12:20:32.958Z,3.37
2018-12-21T12:23:01.311Z,4.90
2018-12-21T12:25:30.497Z,5.70
2018-12-21T12:27:59.087Z,5.92
2018-12-21T12:30:27.673Z,7.58
2018-12-21T12:32:56.033Z,6.67
2018-12-21T12:35:24.348Z,7.25
2018-12-21T12:37:52.854Z,5.40
2018-12-21T12:40:21.190Z,4.80
2018-12-21T12:42:49.599Z,6.60
2018-12-21T12:45:17.837Z,7.25
2018-12-21T12:47:48.525Z,7.75
2018-12-21T12:50:16.753Z,7.35
2018-12-21T12:52:46.154Z,6.65
2018-12-21T12:55:14.630Z,9.40
2018-12-21T12:57:43.131Z,9.98
2018-12-21T13:00:12.836Z,12.75
2018-12-21T13:02:41.190Z,11.57
2018-12-21T13:05:09.880Z,8.28
2018-12-21T13:07:38.408Z,6.22
2018-12-21T13:10:09.194Z,5.45
2018-12-21T13:12:38.247Z,6.22
2018-12-21T13:15:09.928Z,6.28
2018-12-21T13:17:39.145Z,4.80
2018-12-21T13:20:09.766Z,5.35
2018-12-21T13:22:38.107Z,5.35
2018-12-21T13:25:11.421Z,4.42
2018-12-21T13:27:38.793Z,6.05
2018-12-21T13:30:11.745Z,6.97
2018-12-21T13:32:39.852Z,12.90
2018-12-21T13:41:54.881Z,14.05
2018-12-21T13:44:23.889Z,11.08
2018-12-21T13:46:52.632Z,11.10
